22°C Temp
19°C Dewpoint
83% Humidity
Temperature
10 KM/H
6 MPH
5 KTS
80°
Due East

Wind Speed
Mostly Scattered
Clouds
Pressure 1016.92 (hPa) - 30.03 (in)
Visibility 6.2 (mi) - 10.0 (km)

Current Conditions
LEMG
Location 9(km)
Metar :LEMG 170830Z 08005KT 050V140 9999 SCT010 22/19 Q1017 NOSIG
Sun 17th October 10:30 am

Airport
  Metar Aviation API Data Provided by https://www.checkwx.com/ PHP scripts by weather34.com ©2021